sensor_id;sensor_type;location;lat;lon;timestamp;pressure;altitude;pressure_sealevel;temperature;humidity
83631;BME280;73593;52.134;5.426;2024-03-29T00:01:42;99125.06;;;6.90;72.10
83631;BME280;73593;52.134;5.426;2024-03-29T00:04:09;99124.91;;;6.91;71.67
83631;BME280;73593;52.134;5.426;2024-03-29T00:06:35;99115.78;;;6.86;71.78
83631;BME280;73593;52.134;5.426;2024-03-29T00:09:03;99110.53;;;6.86;72.03
83631;BME280;73593;52.134;5.426;2024-03-29T00:11:33;99108.72;;;6.86;72.19
83631;BME280;73593;52.134;5.426;2024-03-29T00:13:59;99106.41;;;6.83;71.93
83631;BME280;73593;52.134;5.426;2024-03-29T00:16:25;99108.31;;;6.81;72.14
83631;BME280;73593;52.134;5.426;2024-03-29T00:18:53;99112.22;;;6.77;72.09
83631;BME280;73593;52.134;5.426;2024-03-29T00:21:19;99109.88;;;6.74;72.12
83631;BME280;73593;52.134;5.426;2024-03-29T00:23:45;99119.72;;;6.72;72.12
83631;BME280;73593;52.134;5.426;2024-03-29T00:26:11;99117.09;;;6.72;72.06
83631;BME280;73593;52.134;5.426;2024-03-29T00:28:37;99117.22;;;6.70;72.13
83631;BME280;73593;52.134;5.426;2024-03-29T00:31:03;99114.72;;;6.69;72.55
83631;BME280;73593;52.134;5.426;2024-03-29T00:33:31;99128.16;;;6.66;72.66
83631;BME280;73593;52.134;5.426;2024-03-29T00:36:02;99123.06;;;6.64;72.52
83631;BME280;73593;52.134;5.426;2024-03-29T00:38:28;99128.31;;;6.64;72.66
83631;BME280;73593;52.134;5.426;2024-03-29T00:40:54;99138.13;;;6.62;72.69
83631;BME280;73593;52.134;5.426;2024-03-29T00:43:19;99135.50;;;6.62;72.82
83631;BME280;73593;52.134;5.426;2024-03-29T00:45:45;99137.28;;;6.62;73.10
83631;BME280;73593;52.134;5.426;2024-03-29T00:48:11;99149.75;;;6.60;72.88
83631;BME280;73593;52.134;5.426;2024-03-29T00:50:37;99148.09;;;6.59;73.26
83631;BME280;73593;52.134;5.426;2024-03-29T00:53:04;99147.13;;;6.60;73.06
83631;BME280;73593;52.134;5.426;2024-03-29T00:55:30;99151.56;;;6.59;72.87
83631;BME280;73593;52.134;5.426;2024-03-29T00:57:58;99151.56;;;6.59;72.82
83631;BME280;73593;52.134;5.426;2024-03-29T01:00:24;99151.25;;;6.62;73.00
83631;BME280;73593;52.134;5.426;2024-03-29T01:02:50;99159.31;;;6.61;73.03
83631;BME280;73593;52.134;5.426;2024-03-29T01:05:16;99151.56;;;6.59;73.34
83631;BME280;73593;52.134;5.426;2024-03-29T01:07:42;99151.00;;;6.56;73.44
83631;BME280;73593;52.134;5.426;2024-03-29T01:10:12;99148.66;;;6.53;73.14
83631;BME280;73593;52.134;5.426;2024-03-29T01:12:38;99152.38;;;6.50;73.48
83631;BME280;73593;52.134;5.426;2024-03-29T01:15:05;99152.53;;;6.49;73.53
83631;BME280;73593;52.134;5.426;2024-03-29T01:17:34;99144.50;;;6.50;73.32
83631;BME280;73593;52.134;5.426;2024-03-29T01:19:59;99154.75;;;6.53;73.70
83631;BME280;73593;52.134;5.426;2024-03-29T01:22:28;99144.22;;;6.53;73.39
83631;BME280;73593;52.134;5.426;2024-03-29T01:24:54;99132.75;;;6.54;73.92
83631;BME280;73593;52.134;5.426;2024-03-29T01:27:21;99132.31;;;6.59;73.75
83631;BME280;73593;52.134;5.426;2024-03-29T01:29:47;99133.84;;;6.61;73.42
83631;BME280;73593;52.134;5.426;2024-03-29T01:32:13;99126.91;;;6.60;73.04
83631;BME280;73593;52.134;5.426;2024-03-29T01:34:38;99137.59;;;6.59;73.31
83631;BME280;73593;52.134;5.426;2024-03-29T01:37:04;99128.72;;;6.60;73.64
83631;BME280;73593;52.134;5.426;2024-03-29T01:39:30;99121.09;;;6.57;73.57
83631;BME280;73593;52.134;5.426;2024-03-29T01:41:59;99117.66;;;6.56;73.46
83631;BME280;73593;52.134;5.426;2024-03-29T01:44:25;99121.25;;;6.55;73.77
83631;BME280;73593;52.134;5.426;2024-03-29T01:46:50;99121.25;;;6.55;73.45
83631;BME280;73593;52.134;5.426;2024-03-29T01:49:21;99117.94;;;6.53;73.72
83631;BME280;73593;52.134;5.426;2024-03-29T01:51:47;99110.06;;;6.53;73.72
83631;BME280;73593;52.134;5.426;2024-03-29T01:54:13;99110.88;;;6.54;73.20
83631;BME280;73593;52.134;5.426;2024-03-29T01:56:41;99117.13;;;6.53;73.27
83631;BME280;73593;52.134;5.426;2024-03-29T01:59:13;99092.78;;;6.51;73.52
83631;BME280;73593;52.134;5.426;2024-03-29T02:01:45;99086.66;;;6.50;73.36
83631;BME280;73593;52.134;5.426;2024-03-29T02:04:11;99093.03;;;6.47;73.32
83631;BME280;73593;52.134;5.426;2024-03-29T02:06:39;99099.44;;;6.45;73.49
83631;BME280;73593;52.134;5.426;2024-03-29T02:09:05;99101.34;;;6.43;73.87
83631;BME280;73593;52.134;5.426;2024-03-29T02:11:32;99097.22;;;6.40;73.62
83631;BME280;73593;52.134;5.426;2024-03-29T02:13:57;99092.94;;;6.39;73.20
83631;BME280;73593;52.134;5.426;2024-03-29T02:16:28;99098.59;;;6.35;73.13
83631;BME280;73593;52.134;5.426;2024-03-29T02:18:54;99109.50;;;6.30;73.51
83631;BME280;73593;52.134;5.426;2024-03-29T02:21:19;99116.03;;;6.26;73.41
83631;BME280;73593;52.134;5.426;2024-03-29T02:26:16;99121.69;;;6.22;73.66
83631;BME280;73593;52.134;5.426;2024-03-29T02:28:42;99134.13;;;6.19;74.03
83631;BME280;73593;52.134;5.426;2024-03-29T02:31:07;99129.00;;;6.18;73.90
83631;BME280;73593;52.134;5.426;2024-03-29T02:33:35;99145.59;;;6.18;74.22
83631;BME280;73593;52.134;5.426;2024-03-29T02:36:01;99151.69;;;6.19;74.00
83631;BME280;73593;52.134;5.426;2024-03-29T02:38:26;99136.91;;;6.18;73.77
83631;BME280;73593;52.134;5.426;2024-03-29T02:40:55;99136.75;;;6.19;73.91
83631;BME280;73593;52.134;5.426;2024-03-29T02:43:23;99144.63;;;6.19;73.75
83631;BME280;73593;52.134;5.426;2024-03-29T02:45:48;99148.94;;;6.21;73.96
83631;BME280;73593;52.134;5.426;2024-03-29T02:48:14;99145.34;;;6.22;73.90
83631;BME280;73593;52.134;5.426;2024-03-29T02:50:40;99141.06;;;6.21;74.04
83631;BME280;73593;52.134;5.426;2024-03-29T02:53:08;99144.38;;;6.23;73.91
83631;BME280;73593;52.134;5.426;2024-03-29T02:55:36;99123.34;;;6.23;73.84
83631;BME280;73593;52.134;5.426;2024-03-29T02:58:02;99136.34;;;6.24;74.21
83631;BME280;73593;52.134;5.426;2024-03-29T03:00:28;99133.31;;;6.29;73.86
83631;BME280;73593;52.134;5.426;2024-03-29T03:02:53;99130.38;;;6.32;74.07
83631;BME280;73593;52.134;5.426;2024-03-29T03:05:19;99135.66;;;6.32;73.94
83631;BME280;73593;52.134;5.426;2024-03-29T03:07:47;99142.69;;;6.31;74.16
83631;BME280;73593;52.134;5.426;2024-03-29T03:10:32;99129.31;;;6.34;74.04
83631;BME280;73593;52.134;5.426;2024-03-29T03:13:16;99141.31;;;6.37;73.66
83631;BME280;73593;52.134;5.426;2024-03-29T03:15:44;99134.97;;;6.39;73.77
83631;BME280;73593;52.134;5.426;2024-03-29T03:18:12;99134.00;;;6.40;73.79
83631;BME280;73593;52.134;5.426;2024-03-29T03:20:40;99138.13;;;6.43;73.67
83631;BME280;73593;52.134;5.426;2024-03-29T03:23:06;99144.50;;;6.50;73.67
83631;BME280;73593;52.134;5.426;2024-03-29T03:25:34;99149.50;;;6.53;73.19
83631;BME280;73593;52.134;5.426;2024-03-29T03:28:00;99151.81;;;6.56;73.47
83631;BME280;73593;52.134;5.426;2024-03-29T03:30:26;99158.47;;;6.60;73.23
83631;BME280;73593;52.134;5.426;2024-03-29T03:32:52;99163.59;;;6.62;73.33
83631;BME280;73593;52.134;5.426;2024-03-29T03:35:18;99163.59;;;6.62;73.21
83631;BME280;73593;52.134;5.426;2024-03-29T03:37:43;99158.22;;;6.63;73.17
83631;BME280;73593;52.134;5.426;2024-03-29T03:40:11;99155.44;;;6.65;73.31
83631;BME280;73593;52.134;5.426;2024-03-29T03:42:37;99158.75;;;6.67;73.44
83631;BME280;73593;52.134;5.426;2024-03-29T03:45:03;99157.66;;;6.69;73.36
83631;BME280;73593;52.134;5.426;2024-03-29T03:47:31;99160.81;;;6.73;73.25
83631;BME280;73593;52.134;5.426;2024-03-29T03:49:57;99166.06;;;6.73;72.72
83631;BME280;73593;52.134;5.426;2024-03-29T03:52:23;99167.59;;;6.76;72.72
83631;BME280;73593;52.134;5.426;2024-03-29T03:54:51;99160.94;;;6.81;73.18
83631;BME280;73593;52.134;5.426;2024-03-29T03:57:17;99162.31;;;6.85;72.63
83631;BME280;73593;52.134;5.426;2024-03-29T03:59:43;99167.44;;;6.87;72.50
83631;BME280;73593;52.134;5.426;2024-03-29T04:02:11;99171.75;;;6.88;72.85
83631;BME280;73593;52.134;5.426;2024-03-29T04:04:39;99158.16;;;6.92;73.12
83631;BME280;73593;52.134;5.426;2024-03-29T04:07:07;99162.31;;;6.95;72.93
83631;BME280;73593;52.134;5.426;2024-03-29T04:09:32;99176.13;;;6.97;72.68
83631;BME280;73593;52.134;5.426;2024-03-29T04:11:58;99173.34;;;6.98;72.94
83631;BME280;73593;52.134;5.426;2024-03-29T04:14:29;99176.56;;;7.02;72.83
83631;BME280;73593;52.134;5.426;2024-03-29T04:16:54;99179.84;;;7.04;72.73
83631;BME280;73593;52.134;5.426;2024-03-29T04:19:20;99175.41;;;7.05;72.60
83631;BME280;73593;52.134;5.426;2024-03-29T04:21:46;99177.63;;;7.09;72.87
83631;BME280;73593;52.134;5.426;2024-03-29T04:24:12;99169.47;;;7.12;72.40
83631;BME280;73593;52.134;5.426;2024-03-29T04:26:40;99160.59;;;7.13;72.58
83631;BME280;73593;52.134;5.426;2024-03-29T04:29:05;99164.72;;;7.16;72.80
83631;BME280;73593;52.134;5.426;2024-03-29T04:31:31;99170.56;;;7.19;72.48
83631;BME280;73593;52.134;5.426;2024-03-29T04:33:57;99165.16;;;7.21;72.86
83631;BME280;73593;52.134;5.426;2024-03-29T04:36:27;99165.81;;;7.23;72.41
83631;BME280;73593;52.134;5.426;2024-03-29T04:38:55;99159.47;;;7.25;72.33
83631;BME280;73593;52.134;5.426;2024-03-29T04:41:23;99161.78;;;7.28;72.46
83631;BME280;73593;52.134;5.426;2024-03-29T04:43:50;99164.25;;;7.30;72.62
83631;BME280;73593;52.134;5.426;2024-03-29T04:46:18;99173.69;;;7.33;73.17
83631;BME280;73593;52.134;5.426;2024-03-29T04:48:47;99164.66;;;7.35;72.86
83631;BME280;73593;52.134;5.426;2024-03-29T04:51:12;99149.59;;;7.37;72.95
83631;BME280;73593;52.134;5.426;2024-03-29T04:53:41;99159.66;;;7.42;73.15
83631;BME280;73593;52.134;5.426;2024-03-29T04:56:09;99154.94;;;7.45;73.54
83631;BME280;73593;52.134;5.426;2024-03-29T04:58:38;99159.53;;;7.43;74.30
83631;BME280;73593;52.134;5.426;2024-03-29T05:01:06;99168.53;;;7.41;74.92
83631;BME280;73593;52.134;5.426;2024-03-29T05:03:32;99168.00;;;7.37;75.63
83631;BME280;73593;52.134;5.426;2024-03-29T05:05:58;99166.47;;;7.35;76.17
83631;BME280;73593;52.134;5.426;2024-03-29T05:08:24;99162.50;;;7.31;76.81
83631;BME280;73593;52.134;5.426;2024-03-29T05:10:50;99169.84;;;7.27;77.21
83631;BME280;73593;52.134;5.426;2024-03-29T05:13:17;99171.09;;;7.23;77.60
83631;BME280;73593;52.134;5.426;2024-03-29T05:15:47;99182.06;;;7.18;78.48
83631;BME280;73593;52.134;5.426;2024-03-29T05:18:16;99177.06;;;7.15;78.49
83631;BME280;73593;52.134;5.426;2024-03-29T05:20:44;99175.56;;;7.13;79.15
83631;BME280;73593;52.134;5.426;2024-03-29T05:23:14;99178.47;;;7.10;79.49
83631;BME280;73593;52.134;5.426;2024-03-29T05:25:40;99175.00;;;7.09;79.47
83631;BME280;73593;52.134;5.426;2024-03-29T05:28:09;99179.59;;;7.07;79.95
83631;BME280;73593;52.134;5.426;2024-03-29T05:30:35;99197.19;;;7.07;79.78
83631;BME280;73593;52.134;5.426;2024-03-29T05:33:04;99206.88;;;7.06;80.32
83631;BME280;73593;52.134;5.426;2024-03-29T05:35:33;99212.41;;;7.03;80.54
83631;BME280;73593;52.134;5.426;2024-03-29T05:38:04;99222.94;;;7.03;81.02
83631;BME280;73593;52.134;5.426;2024-03-29T05:40:30;99223.09;;;7.02;80.77
83631;BME280;73593;52.134;5.426;2024-03-29T05:42:56;99230.97;;;7.02;80.77
83631;BME280;73593;52.134;5.426;2024-03-29T05:47:52;99227.22;;;7.04;81.74
83631;BME280;73593;52.134;5.426;2024-03-29T05:50:22;99230.81;;;7.03;81.96
83631;BME280;73593;52.134;5.426;2024-03-29T05:52:53;99227.38;;;7.03;82.07
83631;BME280;73593;52.134;5.426;2024-03-29T05:55:19;99244.81;;;7.04;82.28
83631;BME280;73593;52.134;5.426;2024-03-29T05:57:45;99252.56;;;7.05;82.38
83631;BME280;73593;52.134;5.426;2024-03-29T06:00:12;99252.56;;;7.05;82.18
83631;BME280;73593;52.134;5.426;2024-03-29T06:02:49;99253.53;;;7.04;82.07
83631;BME280;73593;52.134;5.426;2024-03-29T06:05:15;99243.84;;;7.05;82.54
83631;BME280;73593;52.134;5.426;2024-03-29T06:07:46;99253.25;;;7.07;82.58
83631;BME280;73593;52.134;5.426;2024-03-29T06:10:12;99264.31;;;7.11;82.54
83631;BME280;73593;52.134;5.426;2024-03-29T06:12:40;99270.28;;;7.13;82.86
83631;BME280;73593;52.134;5.426;2024-03-29T06:15:06;99271.13;;;7.13;82.83
83631;BME280;73593;52.134;5.426;2024-03-29T06:17:51;99267.50;;;7.14;83.26
83631;BME280;73593;52.134;5.426;2024-03-29T06:20:19;99275.25;;;7.16;83.24
83631;BME280;73593;52.134;5.426;2024-03-29T06:22:45;99280.38;;;7.17;83.13
83631;BME280;73593;52.134;5.426;2024-03-29T06:25:10;99279.28;;;7.20;83.47
83631;BME280;73593;52.134;5.426;2024-03-29T06:27:36;99279.97;;;7.22;83.39
83631;BME280;73593;52.134;5.426;2024-03-29T06:30:05;99270.00;;;7.25;83.62
83631;BME280;73593;52.134;5.426;2024-03-29T06:32:33;99272.34;;;7.28;83.19
83631;BME280;73593;52.134;5.426;2024-03-29T06:35:02;99283.44;;;7.32;83.29
83631;BME280;73593;52.134;5.426;2024-03-29T06:37:30;99283.13;;;7.35;83.57
83631;BME280;73593;52.134;5.426;2024-03-29T06:39:58;99282.03;;;7.38;83.33
83631;BME280;73593;52.134;5.426;2024-03-29T06:42:24;99284.22;;;7.42;83.37
83631;BME280;73593;52.134;5.426;2024-03-29T06:44:50;99280.34;;;7.46;83.32
83631;BME280;73593;52.134;5.426;2024-03-29T06:47:17;99274.09;;;7.47;83.72
83631;BME280;73593;52.134;5.426;2024-03-29T06:49:43;99272.03;;;7.51;83.58
83631;BME280;73593;52.134;5.426;2024-03-29T06:52:09;99277.00;;;7.54;83.53
83631;BME280;73593;52.134;5.426;2024-03-29T06:54:37;99266.34;;;7.56;83.42
83631;BME280;73593;52.134;5.426;2024-03-29T06:57:03;99260.63;;;7.60;83.42
83631;BME280;73593;52.134;5.426;2024-03-29T06:59:37;99268.09;;;7.65;83.50
83631;BME280;73593;52.134;5.426;2024-03-29T07:02:03;99257.41;;;7.66;83.32
83631;BME280;73593;52.134;5.426;2024-03-29T07:04:28;99256.47;;;7.67;83.02
83631;BME280;73593;52.134;5.426;2024-03-29T07:06:58;99258.94;;;7.69;83.21
83631;BME280;73593;52.134;5.426;2024-03-29T07:09:27;99260.44;;;7.71;83.36
83631;BME280;73593;52.134;5.426;2024-03-29T07:11:52;99247.81;;;7.75;83.26
83631;BME280;73593;52.134;5.426;2024-03-29T07:14:20;99263.72;;;7.83;83.42
83631;BME280;73593;52.134;5.426;2024-03-29T07:16:46;99258.03;;;7.88;83.35
83631;BME280;73593;52.134;5.426;2024-03-29T07:19:12;99265.78;;;7.89;82.79
83631;BME280;73593;52.134;5.426;2024-03-29T07:21:47;99275.66;;;7.87;82.94
83631;BME280;73593;52.134;5.426;2024-03-29T07:24:13;99276.47;;;7.88;83.35
83631;BME280;73593;52.134;5.426;2024-03-29T07:26:41;99277.31;;;7.88;82.64
83631;BME280;73593;52.134;5.426;2024-03-29T07:29:07;99277.16;;;7.90;83.35
83631;BME280;73593;52.134;5.426;2024-03-29T07:31:33;99282.00;;;7.94;83.32
83631;BME280;73593;52.134;5.426;2024-03-29T07:33:59;99285.16;;;7.98;82.98
83631;BME280;73593;52.134;5.426;2024-03-29T07:36:26;99297.06;;;8.02;82.74
83631;BME280;73593;52.134;5.426;2024-03-29T07:39:01;99299.56;;;8.03;82.46
83631;BME280;73593;52.134;5.426;2024-03-29T07:41:27;99302.75;;;8.07;82.82
83631;BME280;73593;52.134;5.426;2024-03-29T07:43:55;99297.31;;;8.08;82.71
83631;BME280;73593;52.134;5.426;2024-03-29T07:46:33;99295.50;;;8.09;82.57
83631;BME280;73593;52.134;5.426;2024-03-29T07:49:02;99288.81;;;8.15;82.65
83631;BME280;73593;52.134;5.426;2024-03-29T07:51:31;99286.19;;;8.15;82.59
83631;BME280;73593;52.134;5.426;2024-03-29T07:53:57;99292.44;;;8.14;82.29
83631;BME280;73593;52.134;5.426;2024-03-29T07:56:23;99293.41;;;8.13;82.43
83631;BME280;73593;52.134;5.426;2024-03-29T07:58:52;99295.50;;;8.09;82.55
83631;BME280;73593;52.134;5.426;2024-03-29T08:01:24;99296.34;;;8.09;82.74
83631;BME280;73593;52.134;5.426;2024-03-29T08:03:51;99296.59;;;8.16;82.36
83631;BME280;73593;52.134;5.426;2024-03-29T08:06:18;99295.75;;;8.16;82.51
83631;BME280;73593;52.134;5.426;2024-03-29T08:08:45;99290.94;;;8.11;82.56
83631;BME280;73593;52.134;5.426;2024-03-29T08:11:13;99278.03;;;8.08;82.41
83631;BME280;73593;52.134;5.426;2024-03-29T08:13:44;99278.72;;;8.10;82.90
83631;BME280;73593;52.134;5.426;2024-03-29T08:16:10;99274.00;;;8.14;82.66
83631;BME280;73593;52.134;5.426;2024-03-29T08:18:38;99281.56;;;8.26;82.82
83631;BME280;73593;52.134;5.426;2024-03-29T08:21:04;99286.31;;;8.50;83.05
83631;BME280;73593;52.134;5.426;2024-03-29T08:23:40;99304.25;;;8.65;82.44
83631;BME280;73593;52.134;5.426;2024-03-29T08:26:06;99305.78;;;8.67;82.27
83631;BME280;73593;52.134;5.426;2024-03-29T08:28:32;99302.69;;;8.72;82.23
83631;BME280;73593;52.134;5.426;2024-03-29T08:31:04;99301.78;;;8.81;81.59
83631;BME280;73593;52.134;5.426;2024-03-29T08:33:31;99297.72;;;9.04;81.99
83631;BME280;73593;52.134;5.426;2024-03-29T08:36:06;99279.59;;;9.27;81.41
83631;BME280;73593;52.134;5.426;2024-03-29T08:38:34;99296.09;;;9.47;80.88
83631;BME280;73593;52.134;5.426;2024-03-29T08:41:03;99302.16;;;9.65;80.82
83631;BME280;73593;52.134;5.426;2024-03-29T08:43:31;99314.91;;;9.70;79.54
83631;BME280;73593;52.134;5.426;2024-03-29T08:45:57;99320.81;;;9.64;79.41
83631;BME280;73593;52.134;5.426;2024-03-29T08:48:23;99325.59;;;9.68;79.17
83631;BME280;73593;52.134;5.426;2024-03-29T08:50:50;99318.25;;;9.80;78.83
83631;BME280;73593;52.134;5.426;2024-03-29T08:53:19;99311.84;;;9.83;78.49
83631;BME280;73593;52.134;5.426;2024-03-29T08:55:48;99321.00;;;9.96;78.74
83631;BME280;73593;52.134;5.426;2024-03-29T08:58:19;99319.00;;;9.99;77.65
83631;BME280;73593;52.134;5.426;2024-03-29T09:00:53;99325.81;;;10.01;77.36
83631;BME280;73593;52.134;5.426;2024-03-29T09:03:20;99322.53;;;10.07;76.88
83631;BME280;73593;52.134;5.426;2024-03-29T09:05:45;99319.53;;;10.28;76.90
83631;BME280;73593;52.134;5.426;2024-03-29T09:08:14;99319.13;;;10.57;76.83
83631;BME280;73593;52.134;5.426;2024-03-29T09:10:42;99320.13;;;10.64;75.92
83631;BME280;73593;52.134;5.426;2024-03-29T09:13:07;99324.63;;;10.80;75.55
83631;BME280;73593;52.134;5.426;2024-03-29T09:15:38;99323.66;;;10.89;75.37
83631;BME280;73593;52.134;5.426;2024-03-29T09:18:07;99321.72;;;10.99;75.02
83631;BME280;73593;52.134;5.426;2024-03-29T09:20:43;99316.41;;;11.16;74.31
83631;BME280;73593;52.134;5.426;2024-03-29T09:23:10;99322.69;;;11.07;73.91
83631;BME280;73593;52.134;5.426;2024-03-29T09:25:42;99323.19;;;11.10;73.70
83631;BME280;73593;52.134;5.426;2024-03-29T09:28:08;99332.97;;;11.10;73.38
83631;BME280;73593;52.134;5.426;2024-03-29T09:30:35;99331.13;;;11.10;73.18
83631;BME280;73593;52.134;5.426;2024-03-29T09:33:01;99340.59;;;11.13;73.00
83631;BME280;73593;52.134;5.426;2024-03-29T09:35:32;99350.50;;;11.11;72.56
83631;BME280;73593;52.134;5.426;2024-03-29T09:37:58;99353.50;;;11.16;72.59
83631;BME280;73593;52.134;5.426;2024-03-29T09:40:26;99350.03;;;11.32;71.98
83631;BME280;73593;52.134;5.426;2024-03-29T09:42:51;99345.25;;;11.43;71.75
83631;BME280;73593;52.134;5.426;2024-03-29T09:45:18;99354.50;;;11.55;71.49
83631;BME280;73593;52.134;5.426;2024-03-29T09:47:49;99355.34;;;11.56;70.80
83631;BME280;73593;52.134;5.426;2024-03-29T09:50:16;99357.81;;;11.57;70.71
83631;BME280;73593;52.134;5.426;2024-03-29T09:52:44;99359.31;;;11.52;70.25
83631;BME280;73593;52.134;5.426;2024-03-29T09:55:11;99357.50;;;11.44;69.61
83631;BME280;73593;52.134;5.426;2024-03-29T09:57:36;99371.06;;;11.41;70.20
83631;BME280;73593;52.134;5.426;2024-03-29T10:00:03;99364.63;;;11.36;69.86
83631;BME280;73593;52.134;5.426;2024-03-29T10:02:31;99382.81;;;11.30;69.99
83631;BME280;73593;52.134;5.426;2024-03-29T10:04:59;99376.69;;;11.30;70.34
83631;BME280;73593;52.134;5.426;2024-03-29T10:07:29;99368.25;;;11.26;70.50
83631;BME280;73593;52.134;5.426;2024-03-29T10:10:00;99372.22;;;11.30;70.52
83631;BME280;73593;52.134;5.426;2024-03-29T10:12:27;99362.63;;;11.38;69.89
83631;BME280;73593;52.134;5.426;2024-03-29T10:14:53;99360.31;;;11.51;70.37
83631;BME280;73593;52.134;5.426;2024-03-29T10:17:26;99352.19;;;11.61;70.07
83631;BME280;73593;52.134;5.426;2024-03-29T10:20:00;99346.03;;;11.84;70.19
83631;BME280;73593;52.134;5.426;2024-03-29T10:22:25;99351.19;;;11.94;69.41
83631;BME280;73593;52.134;5.426;2024-03-29T10:24:51;99352.81;;;11.95;69.47
83631;BME280;73593;52.134;5.426;2024-03-29T10:27:17;99353.47;;;12.05;69.04
83631;BME280;73593;52.134;5.426;2024-03-29T10:29:45;99352.28;;;12.16;68.61
83631;BME280;73593;52.134;5.426;2024-03-29T10:32:13;99357.22;;;12.27;68.23
83631;BME280;73593;52.134;5.426;2024-03-29T10:34:39;99357.38;;;12.73;68.16
83631;BME280;73593;52.134;5.426;2024-03-29T10:37:07;99354.25;;;12.93;66.87
83631;BME280;73593;52.134;5.426;2024-03-29T10:39:33;99354.19;;;13.01;67.04
83631;BME280;73593;52.134;5.426;2024-03-29T10:42:01;99356.72;;;13.02;66.13
83631;BME280;73593;52.134;5.426;2024-03-29T10:44:28;99361.06;;;12.95;66.33
83631;BME280;73593;52.134;5.426;2024-03-29T10:46:57;99376.34;;;12.93;65.60
83631;BME280;73593;52.134;5.426;2024-03-29T10:49:24;99361.63;;;12.82;65.85
83631;BME280;73593;52.134;5.426;2024-03-29T10:51:55;99361.72;;;12.97;66.24
83631;BME280;73593;52.134;5.426;2024-03-29T10:54:27;99361.53;;;13.30;65.77
83631;BME280;73593;52.134;5.426;2024-03-29T10:56:59;99355.53;;;13.05;64.75
83631;BME280;73593;52.134;5.426;2024-03-29T10:59:41;99365.72;;;12.93;64.15
83631;BME280;73593;52.134;5.426;2024-03-29T11:05:06;99380.13;;;13.30;64.09
83631;BME280;73593;52.134;5.426;2024-03-29T11:07:39;99387.16;;;13.46;64.73
83631;BME280;73593;52.134;5.426;2024-03-29T11:10:14;99389.34;;;13.65;64.72
83631;BME280;73593;52.134;5.426;2024-03-29T11:12:54;99403.44;;;13.88;64.37
83631;BME280;73593;52.134;5.426;2024-03-29T11:15:28;99396.81;;;13.84;63.88
83631;BME280;73593;52.134;5.426;2024-03-29T11:17:55;99409.47;;;13.82;63.92
83631;BME280;73593;52.134;5.426;2024-03-29T11:20:31;99399.91;;;13.73;64.06
83631;BME280;73593;52.134;5.426;2024-03-29T11:23:02;99395.34;;;13.82;64.07
83631;BME280;73593;52.134;5.426;2024-03-29T11:25:39;99386.81;;;13.86;63.27
83631;BME280;73593;52.134;5.426;2024-03-29T11:28:06;99369.41;;;13.98;63.02
83631;BME280;73593;52.134;5.426;2024-03-29T11:30:49;99371.78;;;13.93;62.51
83631;BME280;73593;52.134;5.426;2024-03-29T11:33:32;99368.84;;;13.88;62.60
83631;BME280;73593;52.134;5.426;2024-03-29T11:36:10;99373.16;;;13.89;63.50
83631;BME280;73593;52.134;5.426;2024-03-29T11:38:40;99369.97;;;13.94;62.83
83631;BME280;73593;52.134;5.426;2024-03-29T11:41:13;99377.38;;;13.98;62.82
83631;BME280;73593;52.134;5.426;2024-03-29T11:43:40;99371.41;;;14.11;61.99
83631;BME280;73593;52.134;5.426;2024-03-29T11:46:13;99368.22;;;14.16;61.96
83631;BME280;73593;52.134;5.426;2024-03-29T11:48:40;99378.59;;;14.11;61.66
83631;BME280;73593;52.134;5.426;2024-03-29T11:51:11;99374.72;;;13.98;61.36
83631;BME280;73593;52.134;5.426;2024-03-29T11:53:40;99383.72;;;13.97;61.24
83631;BME280;73593;52.134;5.426;2024-03-29T11:56:10;99379.88;;;14.15;61.65
83631;BME280;73593;52.134;5.426;2024-03-29T11:58:39;99376.31;;;14.08;61.06
83631;BME280;73593;52.134;5.426;2024-03-29T12:01:08;99384.25;;;13.93;60.64
83631;BME280;73593;52.134;5.426;2024-03-29T12:03:43;99385.66;;;14.04;61.69
83631;BME280;73593;52.134;5.426;2024-03-29T12:06:09;99394.09;;;14.22;61.21
83631;BME280;73593;52.134;5.426;2024-03-29T12:08:39;99395.50;;;14.33;60.75
83631;BME280;73593;52.134;5.426;2024-03-29T12:11:08;99400.19;;;14.31;60.24
83631;BME280;73593;52.134;5.426;2024-03-29T12:13:34;99405.97;;;14.19;60.04
83631;BME280;73593;52.134;5.426;2024-03-29T12:16:03;99417.03;;;13.93;59.73
83631;BME280;73593;52.134;5.426;2024-03-29T12:18:31;99420.03;;;13.90;61.08
83631;BME280;73593;52.134;5.426;2024-03-29T12:20:57;99427.41;;;14.03;61.34
83631;BME280;73593;52.134;5.426;2024-03-29T12:23:25;99420.91;;;14.06;60.48
83631;BME280;73593;52.134;5.426;2024-03-29T12:25:57;99415.09;;;14.02;60.45
83631;BME280;73593;52.134;5.426;2024-03-29T12:28:25;99414.56;;;14.07;60.78
83631;BME280;73593;52.134;5.426;2024-03-29T12:30:56;99408.63;;;14.19;60.50
83631;BME280;73593;52.134;5.426;2024-03-29T12:33:27;99405.75;;;14.36;59.85
83631;BME280;73593;52.134;5.426;2024-03-29T12:35:54;99417.81;;;14.32;59.58
83631;BME280;73593;52.134;5.426;2024-03-29T12:38:21;99423.13;;;14.32;60.09
83631;BME280;73593;52.134;5.426;2024-03-29T12:40:48;99418.09;;;14.37;59.40
83631;BME280;73593;52.134;5.426;2024-03-29T12:43:19;99429.69;;;14.59;59.28
83631;BME280;73593;52.134;5.426;2024-03-29T12:45:45;99420.75;;;14.66;59.40
83631;BME280;73593;52.134;5.426;2024-03-29T12:48:12;99422.44;;;14.67;59.09
83631;BME280;73593;52.134;5.426;2024-03-29T12:50:40;99421.88;;;14.72;59.12
83631;BME280;73593;52.134;5.426;2024-03-29T12:53:10;99420.50;;;14.76;59.40
83631;BME280;73593;52.134;5.426;2024-03-29T12:55:41;99417.91;;;14.83;58.96
83631;BME280;73593;52.134;5.426;2024-03-29T12:58:10;99429.19;;;14.85;58.59
83631;BME280;73593;52.134;5.426;2024-03-29T13:00:40;99430.75;;;14.79;57.46
83631;BME280;73593;52.134;5.426;2024-03-29T13:03:06;99418.38;;;14.71;57.85
83631;BME280;73593;52.134;5.426;2024-03-29T13:05:36;99419.56;;;14.84;58.67
83631;BME280;73593;52.134;5.426;2024-03-29T13:08:10;99422.03;;;14.85;58.76
83631;BME280;73593;52.134;5.426;2024-03-29T13:10:37;99429.38;;;14.83;58.25
83631;BME280;73593;52.134;5.426;2024-03-29T13:13:04;99434.91;;;14.82;58.81
83631;BME280;73593;52.134;5.426;2024-03-29T13:15:33;99429.09;;;14.93;58.88
83631;BME280;73593;52.134;5.426;2024-03-29T13:17:59;99431.66;;;15.01;58.38
83631;BME280;73593;52.134;5.426;2024-03-29T13:20:32;99439.09;;;14.91;58.02